Millheim, Texas
Current Conditions -  °F | °C
As of 8:15 PM on Friday 31 Oct 2014 (Local Time) from KELA Reporting Station
Clear Clear  
Wind Chill: 16°   Ceiling: Unl
Heat Index: 16°   Visibility: 10mi
Dew Point:   Wind: 5mph
Humidity: 53%   Direction: 360°N
Pressure: 30.24"   Gusts: NA
Location:  29.7835°N, 96.2064°W
Report Text: KELA 010115Z AUTO 36004KT 10SM CLR 16/06 A3024 RMK AO2 T01580061
Loading
Personal Weather Stations






























Interactive Weather Map
Tropical Storm Tracking
New forecast layout! Learn more

10-Day Weather Forecast

Advertisements
Track Severe Weather on mobile